Time;durP1;ratioP1;P1;durP2;ratioP2;P2;SDS_P1;SDS_P2;PMS_P1;PMS_P2;Temp;Humidity;BMP_temperature;BMP_pressure;BME280_temperature;BME280_humidity;BME280_pressure;Samples;Min_cycle;Max_cycle;Signal;HPM_P1;HPM_P2
2022/08/01 00:00:36;;;;;;;7.55;2.50;;;;;;;;;;6210129;23;20028;-83
2022/08/01 00:03:04;;;;;;;2.53;2.00;;;;;;;;;;6212367;23;20075;-83
2022/08/01 00:05:31;;;;;;;5.70;2.40;;;;;;;;;;6220618;23;20021;-84
2022/08/01 00:07:59;;;;;;;3.95;2.03;;;;;;;;;;6211879;23;20086;-84
2022/08/01 00:10:27;;;;;;;4.45;2.38;;;;;;;;;;6210967;23;20027;-84
2022/08/01 00:12:54;;;;;;;4.13;2.42;;;;;;;;;;6210926;23;20046;-83
2022/08/01 00:15:21;;;;;;;8.70;2.80;;;;;;;;;;6208969;23;20028;-83
2022/08/01 00:17:48;;;;;;;;;;;;;;;;;;6209588;23;20028;-84
2022/08/01 00:20:16;;;;;;;4.60;2.20;;;;;;;;;;6210282;23;20412;-84
2022/08/01 00:22:43;;;;;;;2.78;2.20;;;;;;;;;;6209537;23;20024;-84
2022/08/01 00:25:10;;;;;;;;;;;;;;;;;;6210803;23;20029;-84
2022/08/01 00:27:38;;;;;;;5.93;2.25;;;;;;;;;;6210579;23;19966;-84
2022/08/01 00:30:05;;;;;;;5.22;2.78;;;;;;;;;;6210482;23;20458;-84
2022/08/01 00:32:41;;;;;;;5.18;2.50;;;;;;;;;;6209777;23;20024;-84
2022/08/01 00:35:08;;;;;;;4.20;1.90;;;;;;;;;;6209665;23;20021;-83
2022/08/01 00:37:37;;;;;;;3.53;2.47;;;;;;;;;;6210386;23;20067;-85
2022/08/01 00:40:04;;;;;;;3.55;2.42;;;;;;;;;;6210175;23;20024;-85
2022/08/01 00:42:32;;;;;;;;;;;;;;;;;;6210354;23;20353;-84
2022/08/01 00:45:00;;;;;;;6.95;2.50;;;;;;;;;;6208827;23;19944;-84
2022/08/01 00:47:27;;;;;;;5.25;2.80;;;;;;;;;;6211004;23;20024;-84
2022/08/01 00:49:54;;;;;;;4.47;2.55;;;;;;;;;;6209952;23;20032;-84
2022/08/01 00:52:21;;;;;;;3.22;2.70;;;;;;;;;;6210267;23;20024;-84
2022/08/01 00:54:49;;;;;;;;;;;;;;;;;;6209325;23;20036;-85
2022/08/01 00:57:16;;;;;;;4.60;2.63;;;;;;;;;;6210009;23;20253;-84
2022/08/01 01:00:04;;;;;;;6.75;2.70;;;;;;;;;;6209350;23;20027;-84
2022/08/01 01:02:32;;;;;;;4.05;2.97;;;;;;;;;;6209686;23;20036;-84
2022/08/01 01:04:59;;;;;;;5.15;3.17;;;;;;;;;;6209865;23;20090;-84
2022/08/01 01:07:33;;;;;;;6.15;2.67;;;;;;;;;;6209105;23;20059;-84
2022/08/01 01:10:11;;;;;;;4.13;2.55;;;;;;;;;;6210313;23;20025;-85
2022/08/01 01:12:45;;;;;;;4.80;2.90;;;;;;;;;;6209329;23;20075;-85
2022/08/01 01:15:19;;;;;;;5.38;2.88;;;;;;;;;;6210170;23;20091;-84
2022/08/01 01:17:49;;;;;;;5.13;2.83;;;;;;;;;;6210091;23;20078;-84
2022/08/01 01:20:18;;;;;;;7.07;2.75;;;;;;;;;;6209969;23;20046;-85
2022/08/01 01:22:48;;;;;;;5.07;3.20;;;;;;;;;;6210065;23;20087;-84
2022/08/01 01:25:39;;;;;;;7.82;3.38;;;;;;;;;;6210182;23;20051;-84
2022/08/01 01:28:16;;;;;;;4.80;2.95;;;;;;;;;;6194552;23;20024;-86
2022/08/01 01:30:45;;;;;;;5.22;3.17;;;;;;;;;;6210052;23;20076;-85
2022/08/01 01:33:14;;;;;;;6.30;3.50;;;;;;;;;;6210325;23;20048;-85
2022/08/01 01:35:47;;;;;;;4.70;3.25;;;;;;;;;;6209809;23;20516;-85
2022/08/01 01:38:19;;;;;;;6.97;3.40;;;;;;;;;;6210886;23;20020;-85
2022/08/01 01:40:47;;;;;;;4.50;3.35;;;;;;;;;;6211194;23;20043;-85
2022/08/01 01:43:15;;;;;;;5.43;3.85;;;;;;;;;;6211931;23;20511;-85
2022/08/01 01:45:44;;;;;;;7.78;3.75;;;;;;;;;;6218678;23;20021;-85
2022/08/01 01:48:14;;;;;;;6.13;3.63;;;;;;;;;;6208717;23;20025;-84
2022/08/01 01:50:43;;;;;;;8.73;4.10;;;;;;;;;;6211669;23;20028;-84
2022/08/01 01:53:12;;;;;;;5.35;3.38;;;;;;;;;;6210428;23;20020;-83
2022/08/01 01:55:42;;;;;;;8.55;4.15;;;;;;;;;;6208800;23;20021;-84
2022/08/01 01:58:16;;;;;;;6.82;4.35;;;;;;;;;;6209901;23;20052;-81
2022/08/01 02:00:45;;;;;;;7.72;4.53;;;;;;;;;;6209899;23;20106;-82
2022/08/01 02:03:14;;;;;;;7.20;5.25;;;;;;;;;;6209486;23;20099;-82
2022/08/01 02:05:42;;;;;;;8.73;4.82;;;;;;;;;;6209033;23;20535;-81
2022/08/01 02:08:11;;;;;;;8.48;5.35;;;;;;;;;;6209506;23;20024;-82
2022/08/01 02:10:38;;;;;;;7.97;5.75;;;;;;;;;;6208913;23;20028;-81
2022/08/01 02:13:06;;;;;;;9.60;6.50;;;;;;;;;;6210856;23;20358;-82
2022/08/01 02:15:38;;;;;;;9.18;5.97;;;;;;;;;;6211626;23;20055;-81
2022/08/01 02:18:25;;;;;;;9.80;5.82;;;;;;;;;;6211655;23;20055;-82
2022/08/01 02:20:53;;;;;;;8.55;6.65;;;;;;;;;;6211320;23;20052;-81
2022/08/01 02:23:21;;;;;;;12.48;7.15;;;;;;;;;;6211945;23;20376;-82
2022/08/01 02:25:49;;;;;;;8.35;6.90;;;;;;;;;;6211392;23;20028;-81
2022/08/01 02:28:43;;;;;;;10.70;7.50;;;;;;;;;;6211875;23;20103;-81
2022/08/01 02:31:16;;;;;;;9.20;7.07;;;;;;;;;;6212019;23;20477;-80
2022/08/01 02:33:45;;;;;;;9.50;7.32;;;;;;;;;;6211223;23;20451;-81
2022/08/01 02:36:13;;;;;;;9.88;6.65;;;;;;;;;;6211448;23;20052;-80
2022/08/01 02:39:01;;;;;;;5.85;5.25;;;;;;;;;;6212019;23;20079;-81
2022/08/01 02:41:29;;;;;;;7.88;7.07;;;;;;;;;;6212019;23;20021;-80
2022/08/01 02:43:59;;;;;;;9.73;7.43;;;;;;;;;;6212027;23;20048;-81
2022/08/01 02:46:30;;;;;;;10.38;8.18;;;;;;;;;;6212475;23;20479;-80
2022/08/01 02:49:00;;;;;;;7.50;6.47;;;;;;;;;;6212009;23;20017;-81
2022/08/01 02:51:28;;;;;;;11.20;7.03;;;;;;;;;;6211658;23;20033;-81
2022/08/01 02:53:57;;;;;;;11.30;9.07;;;;;;;;;;6211723;23;20323;-81
2022/08/01 02:56:34;;;;;;;13.93;9.55;;;;;;;;;;6212160;23;20323;-82
2022/08/01 02:59:06;;;;;;;10.70;9.45;;;;;;;;;;6211429;23;20035;-81
2022/08/01 03:01:35;;;;;;;12.80;8.90;;;;;;;;;;6211388;23;20021;-81
2022/08/01 03:04:04;;;;;;;9.40;8.48;;;;;;;;;;6212298;23;20021;-81
2022/08/01 03:06:32;;;;;;;9.40;7.40;;;;;;;;;;6212145;23;20098;-80
2022/08/01 03:09:02;;;;;;;8.35;7.05;;;;;;;;;;6211490;23;20082;-80
2022/08/01 03:11:29;;;;;;;9.45;7.38;;;;;;;;;;6211015;23;20366;-81
2022/08/01 03:13:59;;;;;;;11.45;8.13;;;;;;;;;;6211226;23;20024;-81
2022/08/01 03:16:27;;;;;;;7.93;6.28;;;;;;;;;;6210159;23;20087;-80
2022/08/01 03:18:55;;;;;;;10.82;7.75;;;;;;;;;;6211400;23;20059;-81
2022/08/01 03:21:23;;;;;;;13.05;9.40;;;;;;;;;;6211330;23;20017;-81
2022/08/01 03:23:56;;;;;;;12.57;9.13;;;;;;;;;;6211228;23;20024;-81
2022/08/01 03:26:27;;;;;;;13.93;10.88;;;;;;;;;;6211673;23;20021;-82
2022/08/01 03:28:56;;;;;;;14.30;9.60;;;;;;;;;;6217821;23;20024;-81
2022/08/01 03:31:24;;;;;;;12.48;10.40;;;;;;;;;;6213276;23;20059;-81
2022/08/01 03:33:51;;;;;;;12.43;9.35;;;;;;;;;;6211638;23;20020;-81
2022/08/01 03:36:19;;;;;;;;;;;;;;;;;;6211169;23;20032;-82
2022/08/01 03:38:47;;;;;;;11.95;9.00;;;;;;;;;;6211234;23;19919;-81
2022/08/01 03:41:20;;;;;;;13.63;9.73;;;;;;;;;;6210362;23;20500;-81
2022/08/01 03:44:02;;;;;;;12.10;7.47;;;;;;;;;;6209754;23;20024;-80
2022/08/01 03:46:43;;;;;;;7.57;6.78;;;;;;;;;;6211448;23;20028;-81
2022/08/01 03:49:24;;;;;;;7.60;6.30;;;;;;;;;;6211196;23;20103;-82
2022/08/01 03:51:51;;;;;;;7.85;6.85;;;;;;;;;;6210551;23;20343;-81
2022/08/01 03:54:18;;;;;;;;;;;;;;;;;;6212375;23;20350;-81
2022/08/01 03:56:47;;;;;;;7.93;6.50;;;;;;;;;;6210876;23;19920;-81
2022/08/01 03:59:15;;;;;;;8.88;7.38;;;;;;;;;;6211455;23;20028;-81
2022/08/01 04:01:43;;;;;;;6.97;6.25;;;;;;;;;;6211013;23;20354;-80
2022/08/01 04:04:11;;;;;;;8.20;7.40;;;;;;;;;;6212154;23;20043;-80
2022/08/01 04:06:43;;;;;;;9.65;8.10;;;;;;;;;;6210574;23;20071;-80
2022/08/01 04:09:11;;;;;;;11.98;7.28;;;;;;;;;;6211196;23;20075;-82
2022/08/01 04:11:40;;;;;;;8.68;7.47;;;;;;;;;;6211240;23;20031;-81
2022/08/01 04:14:08;;;;;;;8.05;6.82;;;;;;;;;;6211515;23;20024;-81
2022/08/01 04:16:35;;;;;;;;;;;;;;;;;;6210736;23;20017;-80
2022/08/01 04:19:02;;;;;;;11.32;7.55;;;;;;;;;;6210598;23;19944;-81
2022/08/01 04:21:33;;;;;;;9.32;7.65;;;;;;;;;;6209920;23;20028;-82
2022/08/01 04:24:04;;;;;;;8.13;7.07;;;;;;;;;;6210517;23;20028;-81
2022/08/01 04:26:33;;;;;;;7.80;7.00;;;;;;;;;;6210186;23;20028;-82
2022/08/01 04:29:04;;;;;;;7.53;6.70;;;;;;;;;;6210560;23;20047;-81
2022/08/01 04:31:32;;;;;;;11.35;8.40;;;;;;;;;;6210715;23;20024;-81
2022/08/01 04:33:59;;;;;;;;;;;;;;;;;;6211153;23;20097;-82
2022/08/01 04:36:27;;;;;;;12.63;8.15;;;;;;;;;;6208946;23;19920;-82
2022/08/01 04:38:58;;;;;;;10.43;8.20;;;;;;;;;;6211508;23;20028;-81
2022/08/01 04:41:25;;;;;;;10.77;9.13;;;;;;;;;;6210788;23;20393;-81
2022/08/01 04:43:54;;;;;;;10.38;9.30;;;;;;;;;;6211304;23;20025;-81
2022/08/01 04:46:22;;;;;;;10.65;9.55;;;;;;;;;;6211400;23;20031;-81
2022/08/01 04:48:50;;;;;;;10.05;9.05;;;;;;;;;;6210866;23;20071;-82
2022/08/01 04:51:21;;;;;;;11.40;9.13;;;;;;;;;;6211157;23;20056;-81
2022/08/01 04:53:50;;;;;;;11.68;9.80;;;;;;;;;;6211144;23;20020;-81
2022/08/01 04:56:20;;;;;;;13.63;10.07;;;;;;;;;;6210800;23;20445;-81
2022/08/01 04:58:47;;;;;;;15.35;9.02;;;;;;;;;;6210166;23;20323;-82
2022/08/01 05:01:15;;;;;;;;;;;;;;;;;;6211358;23;20016;-81
2022/08/01 05:03:43;;;;;;;12.93;10.43;;;;;;;;;;6210784;23;19919;-82
2022/08/01 05:06:11;;;;;;;15.35;10.43;;;;;;;;;;6210963;23;20025;-81
2022/08/01 05:08:38;;;;;;;10.70;8.88;;;;;;;;;;6210334;23;20087;-81
2022/08/01 05:11:05;;;;;;;11.23;10.07;;;;;;;;;;6212000;23;20025;-81
2022/08/01 05:13:33;;;;;;;10.30;9.23;;;;;;;;;;6211456;23;20021;-81
2022/08/01 05:16:03;;;;;;;11.50;9.82;;;;;;;;;;6209531;23;20318;-81
2022/08/01 05:18:31;;;;;;;13.90;10.35;;;;;;;;;;6210251;23;20028;-81
2022/08/01 05:20:58;;;;;;;12.00;8.02;;;;;;;;;;6209729;23;20036;-80
2022/08/01 05:23:26;;;;;;;13.52;8.93;;;;;;;;;;6209808;23;20457;-81
2022/08/01 05:26:09;;;;;;;13.20;9.63;;;;;;;;;;6211034;23;20023;-79
2022/08/01 05:28:37;;;;;;;13.05;8.80;;;;;;;;;;6210857;23;20028;-80
2022/08/01 05:31:04;;;;;;;10.75;9.40;;;;;;;;;;6209816;23;20481;-81
2022/08/01 05:33:32;;;;;;;13.20;8.00;;;;;;;;;;6210985;23;20031;-80
2022/08/01 05:35:59;;;;;;;;;;;;;;;;;;6211079;23;20031;-81
2022/08/01 05:38:26;;;;;;;11.88;7.97;;;;;;;;;;6209910;23;20393;-81
2022/08/01 05:40:53;;;;;;;7.43;6.22;;;;;;;;;;6210495;23;20020;-81
2022/08/01 05:43:21;;;;;;;8.23;7.13;;;;;;;;;;6211057;23;20028;-81
2022/08/01 05:45:54;;;;;;;7.70;6.90;;;;;;;;;;6210964;23;20021;-81
2022/08/01 05:48:22;;;;;;;9.68;6.80;;;;;;;;;;6211944;23;20028;-81
2022/08/01 05:50:50;;;;;;;7.97;5.93;;;;;;;;;;6212724;23;20079;-81
2022/08/01 05:53:24;;;;;;;7.38;5.55;;;;;;;;;;6211542;23;20323;-81
2022/08/01 05:55:52;;;;;;;7.85;6.10;;;;;;;;;;6212648;23;20024;-81
2022/08/01 05:58:19;;;;;;;7.13;5.53;;;;;;;;;;6210311;23;20020;-81
2022/08/01 06:00:46;;;;;;;8.38;6.32;;;;;;;;;;6212208;23;20020;-80
2022/08/01 06:03:14;;;;;;;8.18;5.97;;;;;;;;;;6212271;23;20028;-81
2022/08/01 06:05:41;;;;;;;7.72;5.60;;;;;;;;;;6211746;23;20462;-81
2022/08/01 06:08:08;;;;;;;9.25;6.50;;;;;;;;;;6211409;23;20032;-81
2022/08/01 06:10:36;;;;;;;;;;;;;;;;;;6212666;23;20407;-80
2022/08/01 06:13:03;;;;;;;11.23;6.03;;;;;;;;;;6212352;23;20345;-81
2022/08/01 06:15:33;;;;;;;11.68;5.43;;;;;;;;;;6212787;23;20457;-81
2022/08/01 06:18:01;;;;;;;6.35;5.72;;;;;;;;;;6211258;23;20032;-80
2022/08/01 06:20:28;;;;;;;;;;;;;;;;;;6210310;23;20029;-81
2022/08/01 06:22:55;;;;;;;7.53;6.15;;;;;;;;;;6212838;23;19915;-81
2022/08/01 06:25:26;;;;;;;6.75;6.15;;;;;;;;;;6212241;23;20054;-80
2022/08/01 06:27:53;;;;;;;6.28;5.68;;;;;;;;;;6212686;23;20312;-81
2022/08/01 06:30:20;;;;;;;7.68;5.13;;;;;;;;;;6213341;23;20106;-81
2022/08/01 06:32:47;;;;;;;;;;;;;;;;;;6212926;23;20032;-81
2022/08/01 06:35:15;;;;;;;3.95;3.55;;;;;;;;;;6211461;23;19955;-81
2022/08/01 06:37:44;;;;;;;8.65;4.85;;;;;;;;;;6210811;23;20032;-81
2022/08/01 06:40:12;;;;;;;5.40;4.72;;;;;;;;;;6209491;23;20351;-81
2022/08/01 06:42:45;;;;;;;7.28;3.90;;;;;;;;;;6211600;23;20025;-81
2022/08/01 06:45:13;;;;;;;5.45;3.80;;;;;;;;;;6210960;23;20047;-81
2022/08/01 06:47:42;;;;;;;5.78;3.70;;;;;;;;;;6212246;23;20025;-81
2022/08/01 06:50:09;;;;;;;6.80;4.28;;;;;;;;;;6211340;23;20465;-82
2022/08/01 06:52:37;;;;;;;3.50;3.15;;;;;;;;;;6211642;23;20095;-81
2022/08/01 06:55:05;;;;;;;5.45;3.97;;;;;;;;;;6212898;23;20082;-82
2022/08/01 06:57:32;;;;;;;;;;;;;;;;;;6210907;23;20086;-82
2022/08/01 07:00:03;;;;;;;7.13;3.30;;;;;;;;;;6212822;23;20345;-81
2022/08/01 07:02:30;;;;;;;5.68;3.53;;;;;;;;;;6212676;23;20021;-82
2022/08/01 07:05:00;;;;;;;7.78;4.00;;;;;;;;;;6212108;23;20028;-82
2022/08/01 07:07:29;;;;;;;6.88;3.30;;;;;;;;;;6211622;23;20021;-82
2022/08/01 07:09:57;;;;;;;5.20;3.70;;;;;;;;;;6212412;23;20082;-80
2022/08/01 07:12:24;;;;;;;3.92;3.08;;;;;;;;;;6212428;23;20021;-82
2022/08/01 07:14:51;;;;;;;4.60;3.10;;;;;;;;;;6211257;23;20024;-82
2022/08/01 07:17:20;;;;;;;5.15;3.17;;;;;;;;;;6211274;23;20024;-82
2022/08/01 07:19:48;;;;;;;3.17;2.60;;;;;;;;;;6210449;23;20029;-82
2022/08/01 07:22:16;;;;;;;4.32;2.35;;;;;;;;;;6211771;23;20078;-82
2022/08/01 07:24:49;;;;;;;5.82;2.63;;;;;;;;;;6210957;23;20480;-80
2022/08/01 07:27:20;;;;;;;2.88;2.42;;;;;;;;;;6211367;23;20452;-82
2022/08/01 07:29:52;;;;;;;2.42;2.22;;;;;;;;;;6210990;23;20024;-82
2022/08/01 07:32:19;;;;;;;4.00;2.00;;;;;;;;;;6211336;23;20332;-81
2022/08/01 07:34:47;;;;;;;3.22;2.22;;;;;;;;;;6211407;23;20315;-80
2022/08/01 07:37:14;;;;;;;6.15;2.40;;;;;;;;;;6211405;23;20029;-81
2022/08/01 07:39:42;;;;;;;;;;;;;;;;;;6213084;23;20067;-81
2022/08/01 07:42:09;;;;;;;6.60;2.65;;;;;;;;;;6212004;23;19916;-80
2022/08/01 07:44:37;;;;;;;4.53;2.72;;;;;;;;;;6211513;23;20447;-81
2022/08/01 07:47:05;;;;;;;6.03;2.75;;;;;;;;;;6210934;23;20048;-81
2022/08/01 07:49:32;;;;;;;6.05;2.88;;;;;;;;;;6211600;23;20020;-82
2022/08/01 07:52:06;;;;;;;4.53;3.00;;;;;;;;;;6210947;23;20340;-82
2022/08/01 07:54:34;;;;;;;5.28;3.05;;;;;;;;;;6211876;23;20025;-82
2022/08/01 07:57:02;;;;;;;8.30;3.15;;;;;;;;;;6211382;23;20025;-81
2022/08/01 07:59:30;;;;;;;8.35;3.20;;;;;;;;;;6211633;23;20024;-82
2022/08/01 08:01:57;;;;;;;;;;;;;;;;;;6212125;23;20474;-84
2022/08/01 08:04:24;;;;;;;10.18;2.70;;;;;;;;;;6212262;23;20027;-86
2022/08/01 08:06:53;;;;;;;8.77;2.55;;;;;;;;;;6210729;23;20474;-82
2022/08/01 08:09:20;;;;;;;6.82;3.20;;;;;;;;;;6212071;23;20029;-82
2022/08/01 08:11:48;;;;;;;6.80;2.63;;;;;;;;;;6208927;23;20027;-81
2022/08/01 08:14:15;;;;;;;6.80;2.70;;;;;;;;;;6211042;23;20024;-82
2022/08/01 08:16:43;;;;;;;15.35;3.35;;;;;;;;;;6209948;23;20043;-81
2022/08/01 08:19:10;;;;;;;;;;;;;;;;;;6211431;23;20102;-82
2022/08/01 08:21:37;;;;;;;9.50;2.70;;;;;;;;;;6209645;23;20300;-83
2022/08/01 08:24:20;;;;;;;;;;;;;;;;;;6212441;23;20028;-82
2022/08/01 08:26:54;;;;;;;4.95;2.50;;;;;;;;;;6210430;23;20261;-83
2022/08/01 08:29:22;;;;;;;7.28;2.63;;;;;;;;;;6211883;23;20024;-82
2022/08/01 08:31:50;;;;;;;6.07;2.30;;;;;;;;;;6210477;23;20029;-82
2022/08/01 08:34:19;;;;;;;4.57;2.33;;;;;;;;;;6208014;23;20028;-84
2022/08/01 08:36:48;;;;;;;3.17;2.45;;;;;;;;;;6210052;23;20033;-83
2022/08/01 08:39:16;;;;;;;5.07;2.38;;;;;;;;;;6210592;23;20029;-82
2022/08/01 08:41:46;;;;;;;4.15;2.13;;;;;;;;;;6209214;23;20025;-84
2022/08/01 08:44:16;;;;;;;6.20;2.22;;;;;;;;;;6209290;23;20035;-83
2022/08/01 08:46:45;;;;;;;5.75;2.20;;;;;;;;;;6210015;23;20025;-83
2022/08/01 08:49:13;;;;;;;5.47;2.13;;;;;;;;;;6208199;23;20052;-86
2022/08/01 08:51:42;;;;;;;6.60;2.92;;;;;;;;;;6207511;23;20023;-84
2022/08/01 08:54:12;;;;;;;8.55;2.50;;;;;;;;;;6209218;23;20389;-84
2022/08/01 08:56:39;;;;;;;5.93;2.35;;;;;;;;;;6209943;23;20021;-83
2022/08/01 08:59:07;;;;;;;10.15;2.55;;;;;;;;;;6210481;23;20520;-84
2022/08/01 09:01:34;;;;;;;7.57;2.22;;;;;;;;;;6207003;23;20070;-85
2022/08/01 09:04:05;;;;;;;4.88;2.20;;;;;;;;;;6206098;23;20075;-86
2022/08/01 09:06:32;;;;;;;6.07;2.53;;;;;;;;;;6209544;23;20453;-85
2022/08/01 09:09:00;;;;;;;;;;;;;;;;;;6210187;23;20059;-86
2022/08/01 09:11:27;;;;;;;4.80;2.15;;;;;;;;;;6210563;23;19927;-86
2022/08/01 09:14:03;;;;;;;8.48;2.50;;;;;;;;;;6207548;23;20028;-87
2022/08/01 09:16:31;;;;;;;8.95;2.75;;;;;;;;;;6209935;23;20066;-87
2022/08/01 09:19:07;;;;;;;7.30;2.65;;;;;;;;;;6209218;23;20110;-86
2022/08/01 09:22:09;;;;;;;4.57;2.30;;;;;;;;;;6209796;23;20346;-85
2022/08/01 09:24:37;;;;;;;6.40;2.30;;;;;;;;;;6206488;23;20051;-84
2022/08/01 09:27:21;;;;;;;5.88;2.53;;;;;;;;;;6210348;23;20024;-85
2022/08/01 09:29:50;;;;;;;6.07;2.10;;;;;;;;;;6207462;23;20082;-86
2022/08/01 09:32:27;;;;;;;3.45;2.00;;;;;;;;;;6210388;23;20024;-84
2022/08/01 09:35:20;;;;;;;5.80;2.00;;;;;;;;;;6210091;23;20025;-84
2022/08/01 09:37:47;;;;;;;7.85;2.28;;;;;;;;;;6209655;23;20362;-86
2022/08/01 09:40:15;;;;;;;7.63;1.83;;;;;;;;;;6210323;23;20025;-87
2022/08/01 09:42:42;;;;;;;2.80;1.70;;;;;;;;;;6208838;23;20532;-82
2022/08/01 09:45:09;;;;;;;;;;;;;;;;;;6210616;23;20047;-84
2022/08/01 09:47:37;;;;;;;2.33;1.50;;;;;;;;;;6209881;23;19974;-83
2022/08/01 09:50:05;;;;;;;6.18;1.98;;;;;;;;;;6210394;23;20031;-83
2022/08/01 09:52:37;;;;;;;4.90;2.10;;;;;;;;;;6209545;23;20361;-83
2022/08/01 09:55:08;;;;;;;5.70;2.00;;;;;;;;;;6209541;23;20079;-84
2022/08/01 09:57:35;;;;;;;5.03;1.98;;;;;;;;;;6209176;23;20387;-84
2022/08/01 10:00:03;;;;;;;5.00;1.90;;;;;;;;;;6208038;23;20066;-83
2022/08/01 10:02:31;;;;;;;6.25;1.90;;;;;;;;;;6209996;23;20020;-83
2022/08/01 10:05:00;;;;;;;5.50;2.08;;;;;;;;;;6210233;23;20143;-85
2022/08/01 10:07:34;;;;;;;9.27;1.95;;;;;;;;;;6209253;23;20072;-83
2022/08/01 10:10:13;;;;;;;7.35;2.00;;;;;;;;;;6209997;23;20079;-85
2022/08/01 10:12:42;;;;;;;4.65;2.17;;;;;;;;;;6206273;23;20028;-86
2022/08/01 10:15:15;;;;;;;4.22;2.10;;;;;;;;;;6209515;23;20474;-83
2022/08/01 10:17:47;;;;;;;6.55;2.22;;;;;;;;;;6209194;23;20231;-85
2022/08/01 10:20:19;;;;;;;6.22;1.90;;;;;;;;;;6208596;23;20079;-85
2022/08/01 10:22:58;;;;;;;3.90;1.65;;;;;;;;;;6211173;23;20341;-82
2022/08/01 10:25:29;;;;;;;7.70;2.13;;;;;;;;;;6210876;23;20032;-84
2022/08/01 10:28:16;;;;;;;7.93;2.40;;;;;;;;;;6209989;23;20510;-84
2022/08/01 10:30:48;;;;;;;6.30;1.92;;;;;;;;;;6209664;23;20185;-82
2022/08/01 10:33:16;;;;;;;8.80;2.13;;;;;;;;;;6208373;23;20028;-84
2022/08/01 10:36:03;;;;;;;7.40;2.03;;;;;;;;;;6209952;23;20056;-84
2022/08/01 10:38:35;;;;;;;6.95;1.95;;;;;;;;;;6209232;23;20017;-83
2022/08/01 10:41:04;;;;;;;5.55;2.20;;;;;;;;;;6210161;23;20028;-83
2022/08/01 10:43:32;;;;;;;5.82;2.00;;;;;;;;;;6209655;23;20024;-82
2022/08/01 10:46:03;;;;;;;8.30;2.00;;;;;;;;;;6209400;23;20020;-83
2022/08/01 10:48:33;;;;;;;6.03;1.80;;;;;;;;;;6210850;23;20021;-85
2022/08/01 10:51:03;;;;;;;7.72;1.73;;;;;;;;;;6211136;23;20029;-83
2022/08/01 10:53:30;;;;;;;8.85;1.98;;;;;;;;;;6210817;23;20028;-84
2022/08/01 10:56:10;;;;;;;6.10;1.90;;;;;;;;;;6210321;23;20031;-83
2022/08/01 10:58:42;;;;;;;8.68;2.20;;;;;;;;;;6208874;23;20028;-87
2022/08/01 11:01:21;;;;;;;7.53;2.08;;;;;;;;;;6211338;23;20226;-86
2022/08/01 11:03:57;;;;;;;5.78;1.73;;;;;;;;;;6210310;23;20021;-86
2022/08/01 11:06:33;;;;;;;5.00;2.08;;;;;;;;;;6210527;23;20024;-85
2022/08/01 11:09:04;;;;;;;4.97;1.77;;;;;;;;;;6211058;23;20056;-85
2022/08/01 11:11:32;;;;;;;8.90;2.30;;;;;;;;;;6211128;23;20058;-84
2022/08/01 11:14:07;;;;;;;4.90;1.92;;;;;;;;;;6210060;23;20474;-83
2022/08/01 11:16:36;;;;;;;9.23;2.00;;;;;;;;;;6211828;23;20106;-84
2022/08/01 11:19:05;;;;;;;4.75;1.80;;;;;;;;;;6210712;23;20021;-83
2022/08/01 11:21:50;;;;;;;7.95;2.35;;;;;;;;;;6210273;23;20413;-85
2022/08/01 11:25:01;;;;;;;9.25;2.15;;;;;;;;;;6210390;23;20516;-85
2022/08/01 11:27:30;;;;;;;4.78;1.73;;;;;;;;;;6087695;23;20030;-83
2022/08/01 11:30:09;;;;;;;8.25;1.98;;;;;;;;;;6185626;23;20085;-83
2022/08/01 11:32:49;;;;;;;8.57;2.28;;;;;;;;;;6211038;23;20040;-84
2022/08/01 11:35:38;;;;;;;6.25;2.10;;;;;;;;;;6209096;23;20419;-85
2022/08/01 11:38:23;;;;;;;7.32;2.20;;;;;;;;;;6211527;23;20021;-85
2022/08/01 11:41:23;;;;;;;5.88;2.05;;;;;;;;;;6210197;23;20481;-84
2022/08/01 11:44:05;;;;;;;10.45;2.28;;;;;;;;;;6157295;23;20016;-86
2022/08/01 11:46:55;;;;;;;6.47;2.20;;;;;;;;;;6209202;23;20035;-85
2022/08/01 11:49:34;;;;;;;9.02;2.30;;;;;;;;;;6207641;23;20344;-85
2022/08/01 11:52:02;;;;;;;5.45;2.03;;;;;;;;;;6209365;23;20025;-84
2022/08/01 11:54:35;;;;;;;8.13;2.20;;;;;;;;;;6210801;23;20083;-88
2022/08/01 11:57:08;;;;;;;6.07;2.28;;;;;;;;;;6209660;23;20071;-84
2022/08/01 11:59:48;;;;;;;7.90;2.17;;;;;;;;;;6210241;23;20108;-85
2022/08/01 12:02:30;;;;;;;7.57;2.13;;;;;;;;;;6209621;23;20027;-83
2022/08/01 12:04:57;;;;;;;;;;;;;;;;;;6210628;23;20025;-82
2022/08/01 12:07:26;;;;;;;7.28;1.80;;;;;;;;;;6209509;23;19920;-85
2022/08/01 12:10:01;;;;;;;5.95;2.15;;;;;;;;;;6211610;23;20047;-83
2022/08/01 12:12:29;;;;;;;5.80;2.17;;;;;;;;;;6210572;23;20469;-84
2022/08/01 12:14:58;;;;;;;5.32;2.22;;;;;;;;;;6210777;23;20028;-86
2022/08/01 12:17:48;;;;;;;4.45;1.83;;;;;;;;;;6209635;23;20078;-87
2022/08/01 12:20:25;;;;;;;6.60;1.70;;;;;;;;;;6203196;23;20028;-84
2022/08/01 12:22:58;;;;;;;5.07;1.83;;;;;;;;;;6209337;23;20184;-84
2022/08/01 12:25:25;;;;;;;3.47;1.70;;;;;;;;;;6210572;23;20024;-84
2022/08/01 12:27:53;;;;;;;5.35;1.88;;;;;;;;;;6210540;23;20024;-86
2022/08/01 12:30:24;;;;;;;4.47;1.60;;;;;;;;;;6211017;23;20080;-87
2022/08/01 12:32:52;;;;;;;4.43;1.40;;;;;;;;;;6210696;23;20020;-87
2022/08/01 12:35:24;;;;;;;7.78;1.70;;;;;;;;;;6211318;23;20327;-85
2022/08/01 12:37:55;;;;;;;3.45;1.40;;;;;;;;;;6210723;23;20494;-83
2022/08/01 12:40:27;;;;;;;3.58;1.55;;;;;;;;;;6211553;23;20458;-85
2022/08/01 12:42:59;;;;;;;4.00;1.50;;;;;;;;;;6208751;23;20025;-87
2022/08/01 12:45:45;;;;;;;6.05;1.48;;;;;;;;;;6208080;23;20036;-87
2022/08/01 12:48:23;;;;;;;6.15;1.08;;;;;;;;;;6209495;23;20017;-87
2022/08/01 12:50:52;;;;;;;5.10;1.45;;;;;;;;;;6207033;23;20048;-87
2022/08/01 12:53:19;;;;;;;5.22;1.50;;;;;;;;;;6209724;23;20032;-85
2022/08/01 12:55:53;;;;;;;4.88;1.58;;;;;;;;;;6209877;23;20016;-88
2022/08/01 12:58:25;;;;;;;4.65;1.42;;;;;;;;;;6209929;23;20020;-86
2022/08/01 13:00:52;;;;;;;;;;;;;;;;;;6210923;23;20771;-87
2022/08/01 13:03:20;;;;;;;3.90;1.40;;;;;;;;;;6210205;23;19927;-86
2022/08/01 13:05:51;;;;;;;4.80;1.55;;;;;;;;;;6209792;23;20029;-87
2022/08/01 13:08:23;;;;;;;4.32;1.20;;;;;;;;;;6210715;23;20028;-88
2022/08/01 13:11:00;;;;;;;4.50;1.50;;;;;;;;;;6211002;23;20024;-87
2022/08/01 13:13:37;;;;;;;5.28;1.65;;;;;;;;;;6210544;23;20025;-86
2022/08/01 13:16:07;;;;;;;6.30;1.58;;;;;;;;;;6211199;23;20031;-87
2022/08/01 13:18:38;;;;;;;4.25;1.50;;;;;;;;;;6209406;23;20020;-86
2022/08/01 13:21:14;;;;;;;4.18;1.55;;;;;;;;;;6210279;23;20021;-89
2022/08/01 13:23:41;;;;;;;6.57;1.63;;;;;;;;;;6210909;23;20060;-89
2022/08/01 13:26:41;;;;;;;5.53;1.58;;;;;;;;;;6208687;23;20032;-85
2022/08/01 13:29:09;;;;;;;5.53;1.40;;;;;;;;;;6209894;23;20020;-87
2022/08/01 13:31:37;;;;;;;7.57;1.58;;;;;;;;;;6209584;23;20078;-88
2022/08/01 13:34:04;;;;;;;5.72;1.80;;;;;;;;;;6209224;23;20025;-89
2022/08/01 13:36:31;;;;;;;5.60;1.75;;;;;;;;;;6208825;23;20354;-87
2022/08/01 13:41:46;;;;;;;6.10;1.55;;;;;;;;;;6209625;23;20132;-84
2022/08/01 13:44:14;;;;;;;4.53;1.50;;;;;;;;;;6207361;23;20086;-87
2022/08/01 13:46:42;;;;;;;6.88;1.55;;;;;;;;;;6209389;23;20031;-86
2022/08/01 13:49:17;;;;;;;3.42;1.40;;;;;;;;;;6207735;23;20325;-86
2022/08/01 13:51:46;;;;;;;5.10;1.45;;;;;;;;;;6209436;23;20021;-88
2022/08/01 13:54:13;;;;;;;;;;;;;;;;;;6209704;23;20083;-87
2022/08/01 13:56:40;;;;;;;6.47;1.30;;;;;;;;;;6208817;23;19928;-88
2022/08/01 13:59:08;;;;;;;4.40;1.42;;;;;;;;;;6209692;23;20032;-86
2022/08/01 14:01:35;;;;;;;;;;;;;;;;;;6210843;23;20029;-88
2022/08/01 14:04:02;;;;;;;4.50;1.50;;;;;;;;;;6209982;23;20344;-85
2022/08/01 14:06:30;;;;;;;;;;;;;;;;;;6210564;23;20079;-85
2022/08/01 14:08:57;;;;;;;2.33;1.40;;;;;;;;;;6209572;23;19916;-86
2022/08/01 14:11:24;;;;;;;5.35;1.42;;;;;;;;;;6211728;23;20070;-87
2022/08/01 14:13:56;;;;;;;3.90;1.48;;;;;;;;;;6211905;23;20020;-86
2022/08/01 14:16:24;;;;;;;3.15;1.40;;;;;;;;;;6209987;23;20025;-88
2022/08/01 14:18:51;;;;;;;4.75;1.40;;;;;;;;;;6212264;23;20469;-86
2022/08/01 14:21:19;;;;;;;3.95;1.42;;;;;;;;;;6212712;23;20021;-89
2022/08/01 14:23:47;;;;;;;3.85;1.30;;;;;;;;;;6210906;23;20020;-87
2022/08/01 14:26:14;;;;;;;4.10;1.65;;;;;;;;;;6210616;23;20083;-86
2022/08/01 14:28:42;;;;;;;5.53;1.70;;;;;;;;;;6211913;23;20016;-86
2022/08/01 14:31:09;;;;;;;3.85;1.60;;;;;;;;;;6212968;23;20350;-86
2022/08/01 14:33:36;;;;;;;4.00;1.83;;;;;;;;;;6212029;23;20103;-87
2022/08/01 14:36:04;;;;;;;8.02;2.13;;;;;;;;;;6212622;23;20079;-89
2022/08/01 14:38:52;;;;;;;5.85;1.50;;;;;;;;;;6212800;23;20124;-88
2022/08/01 14:41:19;;;;;;;6.40;1.70;;;;;;;;;;6212445;23;20067;-88
2022/08/01 14:43:46;;;;;;;4.53;1.80;;;;;;;;;;6211993;23;20063;-86
2022/08/01 14:46:14;;;;;;;3.80;1.50;;;;;;;;;;6211432;23;20028;-90
2022/08/01 14:48:42;;;;;;;5.63;1.70;;;;;;;;;;6211153;23;20067;-89
2022/08/01 14:51:09;;;;;;;6.80;1.65;;;;;;;;;;6211343;23;20535;-89
2022/08/01 14:53:37;;;;;;;2.65;1.38;;;;;;;;;;6210682;23;20501;-89
2022/08/01 14:56:05;;;;;;;3.70;1.27;;;;;;;;;;6212143;23;20083;-86
2022/08/01 14:58:32;;;;;;;4.20;1.30;;;;;;;;;;6211735;23;20410;-89
2022/08/01 15:01:00;;;;;;;4.00;1.50;;;;;;;;;;6211018;23;20016;-87
2022/08/01 15:03:28;;;;;;;3.08;1.52;;;;;;;;;;6211100;23;20028;-87
2022/08/01 15:05:55;;;;;;;5.43;1.48;;;;;;;;;;6210711;23;20024;-88
2022/08/01 15:08:23;;;;;;;3.13;1.50;;;;;;;;;;6210386;23;20416;-87
2022/08/01 15:10:51;;;;;;;3.35;1.58;;;;;;;;;;6210831;23;20055;-89